sensor_id;sensor_type;location;lat;lon;timestamp;P1;durP1;ratioP1;P2;durP2;ratioP2
61911;SDS011;49973;52.084;5.412;2024-01-27T00:01:40;0.00;;;0.00;;
61911;SDS011;49973;52.084;5.412;2024-01-27T00:04:12;0.10;;;0.10;;
61911;SDS011;49973;52.084;5.412;2024-01-27T00:06:40;0.10;;;0.10;;
61911;SDS011;49973;52.084;5.412;2024-01-27T00:09:09;0.10;;;0.10;;
61911;SDS011;49973;52.084;5.412;2024-01-27T00:11:38;0.20;;;0.20;;
61911;SDS011;49973;52.084;5.412;2024-01-27T00:14:07;0.20;;;0.20;;
61911;SDS011;49973;52.084;5.412;2024-01-27T00:16:35;0.10;;;0.10;;
61911;SDS011;49973;52.084;5.412;2024-01-27T00:19:05;0.10;;;0.10;;
61911;SDS011;49973;52.084;5.412;2024-01-27T00:21:34;0.10;;;0.10;;
61911;SDS011;49973;52.084;5.412;2024-01-27T00:24:03;0.10;;;0.10;;
61911;SDS011;49973;52.084;5.412;2024-01-27T00:26:32;0.10;;;0.10;;
61911;SDS011;49973;52.084;5.412;2024-01-27T00:29:00;0.13;;;0.13;;
61911;SDS011;49973;52.084;5.412;2024-01-27T00:31:29;0.10;;;0.10;;
61911;SDS011;49973;52.084;5.412;2024-01-27T00:33:57;0.10;;;0.10;;
61911;SDS011;49973;52.084;5.412;2024-01-27T00:36:28;0.17;;;0.17;;
61911;SDS011;49973;52.084;5.412;2024-01-27T00:38:56;0.10;;;0.10;;
61911;SDS011;49973;52.084;5.412;2024-01-27T00:41:25;0.20;;;0.20;;
61911;SDS011;49973;52.084;5.412;2024-01-27T00:43:55;0.10;;;0.10;;
61911;SDS011;49973;52.084;5.412;2024-01-27T00:46:23;0.20;;;0.20;;
61911;SDS011;49973;52.084;5.412;2024-01-27T00:48:52;0.17;;;0.17;;
61911;SDS011;49973;52.084;5.412;2024-01-27T00:51:21;0.20;;;0.20;;
61911;SDS011;49973;52.084;5.412;2024-01-27T00:53:51;0.10;;;0.10;;
61911;SDS011;49973;52.084;5.412;2024-01-27T00:56:20;0.10;;;0.10;;
61911;SDS011;49973;52.084;5.412;2024-01-27T00:58:49;0.10;;;0.10;;
61911;SDS011;49973;52.084;5.412;2024-01-27T01:01:17;0.10;;;0.10;;
61911;SDS011;49973;52.084;5.412;2024-01-27T01:03:46;0.20;;;0.20;;
61911;SDS011;49973;52.084;5.412;2024-01-27T01:06:15;0.10;;;0.10;;
61911;SDS011;49973;52.084;5.412;2024-01-27T01:08:43;0.10;;;0.10;;
61911;SDS011;49973;52.084;5.412;2024-01-27T01:11:13;0.10;;;0.10;;
61911;SDS011;49973;52.084;5.412;2024-01-27T01:13:42;0.10;;;0.10;;
61911;SDS011;49973;52.084;5.412;2024-01-27T01:16:11;0.10;;;0.10;;
61911;SDS011;49973;52.084;5.412;2024-01-27T01:18:40;0.10;;;0.10;;
61911;SDS011;49973;52.084;5.412;2024-01-27T01:21:09;0.20;;;0.20;;
61911;SDS011;49973;52.084;5.412;2024-01-27T01:23:38;0.20;;;0.20;;
61911;SDS011;49973;52.084;5.412;2024-01-27T01:26:06;0.10;;;0.10;;
61911;SDS011;49973;52.084;5.412;2024-01-27T01:28:36;0.10;;;0.10;;
61911;SDS011;49973;52.084;5.412;2024-01-27T01:31:06;0.10;;;0.10;;
61911;SDS011;49973;52.084;5.412;2024-01-27T01:33:35;0.13;;;0.13;;
61911;SDS011;49973;52.084;5.412;2024-01-27T01:36:04;0.17;;;0.17;;
61911;SDS011;49973;52.084;5.412;2024-01-27T01:38:33;0.20;;;0.20;;
61911;SDS011;49973;52.084;5.412;2024-01-27T01:41:01;0.10;;;0.10;;
61911;SDS011;49973;52.084;5.412;2024-01-27T01:43:30;0.20;;;0.20;;
61911;SDS011;49973;52.084;5.412;2024-01-27T01:46:00;0.20;;;0.20;;
61911;SDS011;49973;52.084;5.412;2024-01-27T01:48:29;0.10;;;0.10;;
61911;SDS011;49973;52.084;5.412;2024-01-27T01:50:58;0.10;;;0.10;;
61911;SDS011;49973;52.084;5.412;2024-01-27T01:53:27;0.20;;;0.20;;
61911;SDS011;49973;52.084;5.412;2024-01-27T01:55:56;0.10;;;0.10;;
61911;SDS011;49973;52.084;5.412;2024-01-27T01:58:25;0.10;;;0.10;;
61911;SDS011;49973;52.084;5.412;2024-01-27T02:01:02;0.10;;;0.10;;
61911;SDS011;49973;52.084;5.412;2024-01-27T02:03:31;0.13;;;0.13;;
61911;SDS011;49973;52.084;5.412;2024-01-27T02:05:59;0.20;;;0.20;;
61911;SDS011;49973;52.084;5.412;2024-01-27T02:08:28;0.17;;;0.17;;
61911;SDS011;49973;52.084;5.412;2024-01-27T02:10:57;0.20;;;0.20;;
61911;SDS011;49973;52.084;5.412;2024-01-27T02:13:27;0.17;;;0.17;;
61911;SDS011;49973;52.084;5.412;2024-01-27T02:15:56;0.20;;;0.20;;
61911;SDS011;49973;52.084;5.412;2024-01-27T02:18:26;0.20;;;0.20;;
61911;SDS011;49973;52.084;5.412;2024-01-27T02:20:55;0.10;;;0.10;;
61911;SDS011;49973;52.084;5.412;2024-01-27T02:23:23;0.10;;;0.10;;
61911;SDS011;49973;52.084;5.412;2024-01-27T02:25:53;0.10;;;0.10;;
61911;SDS011;49973;52.084;5.412;2024-01-27T02:28:24;0.10;;;0.10;;
61911;SDS011;49973;52.084;5.412;2024-01-27T02:30:52;0.10;;;0.10;;
61911;SDS011;49973;52.084;5.412;2024-01-27T02:33:21;0.20;;;0.20;;
61911;SDS011;49973;52.084;5.412;2024-01-27T02:35:50;0.20;;;0.20;;
61911;SDS011;49973;52.084;5.412;2024-01-27T02:38:18;0.20;;;0.20;;
61911;SDS011;49973;52.084;5.412;2024-01-27T02:40:47;0.10;;;0.10;;
61911;SDS011;49973;52.084;5.412;2024-01-27T02:43:17;0.20;;;0.20;;
61911;SDS011;49973;52.084;5.412;2024-01-27T02:45:45;0.20;;;0.20;;
61911;SDS011;49973;52.084;5.412;2024-01-27T02:48:14;0.10;;;0.10;;
61911;SDS011;49973;52.084;5.412;2024-01-27T02:50:43;0.10;;;0.10;;
61911;SDS011;49973;52.084;5.412;2024-01-27T02:53:11;0.13;;;0.13;;
61911;SDS011;49973;52.084;5.412;2024-01-27T02:55:40;0.20;;;0.20;;
61911;SDS011;49973;52.084;5.412;2024-01-27T02:58:08;0.10;;;0.10;;
61911;SDS011;49973;52.084;5.412;2024-01-27T03:00:38;0.20;;;0.20;;
61911;SDS011;49973;52.084;5.412;2024-01-27T03:03:07;0.20;;;0.20;;
61911;SDS011;49973;52.084;5.412;2024-01-27T03:05:36;0.10;;;0.10;;
61911;SDS011;49973;52.084;5.412;2024-01-27T03:08:05;0.20;;;0.20;;
61911;SDS011;49973;52.084;5.412;2024-01-27T03:10:34;0.10;;;0.10;;
61911;SDS011;49973;52.084;5.412;2024-01-27T03:13:03;0.17;;;0.17;;
61911;SDS011;49973;52.084;5.412;2024-01-27T03:15:33;0.10;;;0.10;;
61911;SDS011;49973;52.084;5.412;2024-01-27T03:18:03;0.10;;;0.10;;
61911;SDS011;49973;52.084;5.412;2024-01-27T03:20:32;0.20;;;0.20;;
61911;SDS011;49973;52.084;5.412;2024-01-27T03:23:01;0.20;;;0.20;;
61911;SDS011;49973;52.084;5.412;2024-01-27T03:25:30;0.10;;;0.10;;
61911;SDS011;49973;52.084;5.412;2024-01-27T03:27:58;0.10;;;0.10;;
61911;SDS011;49973;52.084;5.412;2024-01-27T03:30:27;0.10;;;0.10;;
61911;SDS011;49973;52.084;5.412;2024-01-27T03:32:56;0.10;;;0.10;;
61911;SDS011;49973;52.084;5.412;2024-01-27T03:35:27;0.10;;;0.10;;
61911;SDS011;49973;52.084;5.412;2024-01-27T03:37:55;0.20;;;0.20;;
61911;SDS011;49973;52.084;5.412;2024-01-27T03:40:25;0.20;;;0.20;;
61911;SDS011;49973;52.084;5.412;2024-01-27T03:42:54;0.20;;;0.20;;
61911;SDS011;49973;52.084;5.412;2024-01-27T03:45:23;0.10;;;0.10;;
61911;SDS011;49973;52.084;5.412;2024-01-27T03:47:51;0.20;;;0.20;;
61911;SDS011;49973;52.084;5.412;2024-01-27T03:50:20;0.10;;;0.10;;
61911;SDS011;49973;52.084;5.412;2024-01-27T03:52:50;0.10;;;0.10;;
61911;SDS011;49973;52.084;5.412;2024-01-27T03:55:19;0.10;;;0.10;;
61911;SDS011;49973;52.084;5.412;2024-01-27T03:57:47;0.13;;;0.13;;
61911;SDS011;49973;52.084;5.412;2024-01-27T04:00:16;0.13;;;0.13;;
61911;SDS011;49973;52.084;5.412;2024-01-27T04:02:45;0.20;;;0.20;;
61911;SDS011;49973;52.084;5.412;2024-01-27T04:05:14;0.10;;;0.10;;
61911;SDS011;49973;52.084;5.412;2024-01-27T04:07:43;0.10;;;0.10;;
61911;SDS011;49973;52.084;5.412;2024-01-27T04:10:13;0.20;;;0.20;;
61911;SDS011;49973;52.084;5.412;2024-01-27T04:12:42;0.10;;;0.10;;
61911;SDS011;49973;52.084;5.412;2024-01-27T04:15:11;0.20;;;0.20;;
61911;SDS011;49973;52.084;5.412;2024-01-27T04:17:40;0.13;;;0.13;;
61911;SDS011;49973;52.084;5.412;2024-01-27T04:20:10;0.20;;;0.20;;
61911;SDS011;49973;52.084;5.412;2024-01-27T04:22:39;0.20;;;0.20;;
61911;SDS011;49973;52.084;5.412;2024-01-27T04:25:08;0.20;;;0.20;;
61911;SDS011;49973;52.084;5.412;2024-01-27T04:27:38;0.20;;;0.20;;
61911;SDS011;49973;52.084;5.412;2024-01-27T04:30:07;0.20;;;0.20;;
61911;SDS011;49973;52.084;5.412;2024-01-27T04:32:36;0.20;;;0.20;;
61911;SDS011;49973;52.084;5.412;2024-01-27T04:35:08;0.10;;;0.10;;
61911;SDS011;49973;52.084;5.412;2024-01-27T04:37:37;0.20;;;0.20;;
61911;SDS011;49973;52.084;5.412;2024-01-27T04:40:07;0.20;;;0.20;;
61911;SDS011;49973;52.084;5.412;2024-01-27T04:42:38;0.13;;;0.13;;
61911;SDS011;49973;52.084;5.412;2024-01-27T04:45:07;0.20;;;0.20;;
61911;SDS011;49973;52.084;5.412;2024-01-27T04:47:36;0.10;;;0.10;;
61911;SDS011;49973;52.084;5.412;2024-01-27T04:50:05;0.20;;;0.20;;
61911;SDS011;49973;52.084;5.412;2024-01-27T04:52:34;0.10;;;0.10;;
61911;SDS011;49973;52.084;5.412;2024-01-27T04:55:03;0.20;;;0.20;;
61911;SDS011;49973;52.084;5.412;2024-01-27T04:57:32;0.20;;;0.20;;
61911;SDS011;49973;52.084;5.412;2024-01-27T05:00:02;0.20;;;0.20;;
61911;SDS011;49973;52.084;5.412;2024-01-27T05:02:34;0.20;;;0.20;;
61911;SDS011;49973;52.084;5.412;2024-01-27T05:05:03;0.10;;;0.10;;
61911;SDS011;49973;52.084;5.412;2024-01-27T05:07:32;0.20;;;0.20;;
61911;SDS011;49973;52.084;5.412;2024-01-27T05:10:00;0.13;;;0.13;;
61911;SDS011;49973;52.084;5.412;2024-01-27T05:12:29;0.20;;;0.20;;
61911;SDS011;49973;52.084;5.412;2024-01-27T05:14:57;0.10;;;0.10;;
61911;SDS011;49973;52.084;5.412;2024-01-27T05:17:28;0.20;;;0.20;;
61911;SDS011;49973;52.084;5.412;2024-01-27T05:19:57;0.20;;;0.20;;
61911;SDS011;49973;52.084;5.412;2024-01-27T05:22:26;0.20;;;0.20;;
61911;SDS011;49973;52.084;5.412;2024-01-27T05:24:54;0.20;;;0.20;;
61911;SDS011;49973;52.084;5.412;2024-01-27T05:27:23;0.10;;;0.10;;
61911;SDS011;49973;52.084;5.412;2024-01-27T05:29:51;0.20;;;0.20;;
61911;SDS011;49973;52.084;5.412;2024-01-27T05:32:20;0.20;;;0.20;;
61911;SDS011;49973;52.084;5.412;2024-01-27T05:34:50;0.20;;;0.20;;
61911;SDS011;49973;52.084;5.412;2024-01-27T05:37:19;0.10;;;0.10;;
61911;SDS011;49973;52.084;5.412;2024-01-27T05:39:47;0.20;;;0.20;;
61911;SDS011;49973;52.084;5.412;2024-01-27T05:42:16;0.10;;;0.10;;
61911;SDS011;49973;52.084;5.412;2024-01-27T05:44:45;0.20;;;0.20;;
61911;SDS011;49973;52.084;5.412;2024-01-27T05:47:13;0.20;;;0.20;;
61911;SDS011;49973;52.084;5.412;2024-01-27T05:49:42;0.20;;;0.20;;
61911;SDS011;49973;52.084;5.412;2024-01-27T05:52:12;0.17;;;0.17;;
61911;SDS011;49973;52.084;5.412;2024-01-27T05:54:51;0.10;;;0.10;;
61911;SDS011;49973;52.084;5.412;2024-01-27T05:57:20;0.20;;;0.20;;
61911;SDS011;49973;52.084;5.412;2024-01-27T05:59:49;0.10;;;0.10;;
61911;SDS011;49973;52.084;5.412;2024-01-27T06:02:17;0.20;;;0.20;;
61911;SDS011;49973;52.084;5.412;2024-01-27T06:04:46;0.20;;;0.20;;
61911;SDS011;49973;52.084;5.412;2024-01-27T06:07:16;0.10;;;0.10;;
61911;SDS011;49973;52.084;5.412;2024-01-27T06:09:45;0.20;;;0.20;;
61911;SDS011;49973;52.084;5.412;2024-01-27T06:12:13;0.10;;;0.10;;
61911;SDS011;49973;52.084;5.412;2024-01-27T06:14:42;0.13;;;0.13;;
61911;SDS011;49973;52.084;5.412;2024-01-27T06:17:11;0.20;;;0.20;;
61911;SDS011;49973;52.084;5.412;2024-01-27T06:19:41;0.20;;;0.20;;
61911;SDS011;49973;52.084;5.412;2024-01-27T06:22:10;0.20;;;0.20;;
61911;SDS011;49973;52.084;5.412;2024-01-27T06:24:42;0.20;;;0.20;;
61911;SDS011;49973;52.084;5.412;2024-01-27T06:27:11;0.20;;;0.20;;
61911;SDS011;49973;52.084;5.412;2024-01-27T06:29:40;0.10;;;0.10;;
61911;SDS011;49973;52.084;5.412;2024-01-27T06:32:10;0.10;;;0.10;;
61911;SDS011;49973;52.084;5.412;2024-01-27T06:34:40;0.20;;;0.20;;
61911;SDS011;49973;52.084;5.412;2024-01-27T06:37:08;0.10;;;0.10;;
61911;SDS011;49973;52.084;5.412;2024-01-27T06:39:37;0.20;;;0.20;;
61911;SDS011;49973;52.084;5.412;2024-01-27T06:42:07;0.20;;;0.20;;
61911;SDS011;49973;52.084;5.412;2024-01-27T06:44:36;0.10;;;0.10;;
61911;SDS011;49973;52.084;5.412;2024-01-27T06:47:04;0.20;;;0.20;;
61911;SDS011;49973;52.084;5.412;2024-01-27T06:49:33;0.20;;;0.20;;
61911;SDS011;49973;52.084;5.412;2024-01-27T06:52:02;0.10;;;0.10;;
61911;SDS011;49973;52.084;5.412;2024-01-27T06:54:31;0.20;;;0.20;;
61911;SDS011;49973;52.084;5.412;2024-01-27T06:56:59;0.20;;;0.20;;
61911;SDS011;49973;52.084;5.412;2024-01-27T06:59:29;0.20;;;0.20;;
61911;SDS011;49973;52.084;5.412;2024-01-27T07:01:58;0.10;;;0.10;;
61911;SDS011;49973;52.084;5.412;2024-01-27T07:04:26;0.20;;;0.20;;
61911;SDS011;49973;52.084;5.412;2024-01-27T07:06:55;0.10;;;0.10;;
61911;SDS011;49973;52.084;5.412;2024-01-27T07:09:24;0.10;;;0.10;;
61911;SDS011;49973;52.084;5.412;2024-01-27T07:11:52;0.17;;;0.17;;
61911;SDS011;49973;52.084;5.412;2024-01-27T07:14:21;0.10;;;0.10;;
61911;SDS011;49973;52.084;5.412;2024-01-27T07:16:51;0.10;;;0.10;;
61911;SDS011;49973;52.084;5.412;2024-01-27T07:19:20;0.10;;;0.10;;
61911;SDS011;49973;52.084;5.412;2024-01-27T07:21:48;0.10;;;0.10;;
61911;SDS011;49973;52.084;5.412;2024-01-27T07:24:17;0.10;;;0.10;;
61911;SDS011;49973;52.084;5.412;2024-01-27T07:26:45;0.10;;;0.10;;
61911;SDS011;49973;52.084;5.412;2024-01-27T07:29:14;0.10;;;0.10;;
61911;SDS011;49973;52.084;5.412;2024-01-27T07:31:43;0.20;;;0.20;;
61911;SDS011;49973;52.084;5.412;2024-01-27T07:34:13;0.20;;;0.20;;
61911;SDS011;49973;52.084;5.412;2024-01-27T07:36:42;0.10;;;0.10;;
61911;SDS011;49973;52.084;5.412;2024-01-27T07:39:10;0.20;;;0.20;;
61911;SDS011;49973;52.084;5.412;2024-01-27T07:41:39;0.10;;;0.10;;
61911;SDS011;49973;52.084;5.412;2024-01-27T07:44:10;0.20;;;0.20;;
61911;SDS011;49973;52.084;5.412;2024-01-27T07:46:39;0.20;;;0.20;;
61911;SDS011;49973;52.084;5.412;2024-01-27T07:49:09;0.20;;;0.20;;
61911;SDS011;49973;52.084;5.412;2024-01-27T07:51:41;0.10;;;0.10;;
61911;SDS011;49973;52.084;5.412;2024-01-27T07:54:10;0.10;;;0.10;;
61911;SDS011;49973;52.084;5.412;2024-01-27T07:56:38;0.20;;;0.20;;
61911;SDS011;49973;52.084;5.412;2024-01-27T07:59:08;0.20;;;0.20;;
61911;SDS011;49973;52.084;5.412;2024-01-27T08:01:40;0.20;;;0.20;;
61911;SDS011;49973;52.084;5.412;2024-01-27T08:04:09;0.20;;;0.20;;
61911;SDS011;49973;52.084;5.412;2024-01-27T08:06:47;0.20;;;0.20;;
61911;SDS011;49973;52.084;5.412;2024-01-27T08:09:17;0.20;;;0.20;;
61911;SDS011;49973;52.084;5.412;2024-01-27T08:11:46;0.10;;;0.10;;
61911;SDS011;49973;52.084;5.412;2024-01-27T08:14:19;0.20;;;0.20;;
61911;SDS011;49973;52.084;5.412;2024-01-27T08:16:48;0.20;;;0.20;;
61911;SDS011;49973;52.084;5.412;2024-01-27T08:19:16;0.20;;;0.20;;
61911;SDS011;49973;52.084;5.412;2024-01-27T08:21:49;0.10;;;0.10;;
61911;SDS011;49973;52.084;5.412;2024-01-27T08:24:18;0.20;;;0.20;;
61911;SDS011;49973;52.084;5.412;2024-01-27T08:26:47;0.20;;;0.20;;
61911;SDS011;49973;52.084;5.412;2024-01-27T08:29:16;0.10;;;0.10;;
61911;SDS011;49973;52.084;5.412;2024-01-27T08:31:44;0.20;;;0.20;;
61911;SDS011;49973;52.084;5.412;2024-01-27T08:34:13;0.17;;;0.17;;
61911;SDS011;49973;52.084;5.412;2024-01-27T08:36:42;0.13;;;0.13;;
61911;SDS011;49973;52.084;5.412;2024-01-27T08:39:12;0.17;;;0.17;;
61911;SDS011;49973;52.084;5.412;2024-01-27T08:41:40;0.20;;;0.20;;
61911;SDS011;49973;52.084;5.412;2024-01-27T08:44:10;0.10;;;0.10;;
61911;SDS011;49973;52.084;5.412;2024-01-27T08:46:39;0.20;;;0.20;;
61911;SDS011;49973;52.084;5.412;2024-01-27T08:49:07;0.20;;;0.20;;
61911;SDS011;49973;52.084;5.412;2024-01-27T08:51:36;0.10;;;0.10;;
61911;SDS011;49973;52.084;5.412;2024-01-27T08:54:05;0.20;;;0.20;;
61911;SDS011;49973;52.084;5.412;2024-01-27T08:56:37;0.20;;;0.20;;
61911;SDS011;49973;52.084;5.412;2024-01-27T08:59:07;0.10;;;0.10;;
61911;SDS011;49973;52.084;5.412;2024-01-27T09:01:36;0.20;;;0.20;;
61911;SDS011;49973;52.084;5.412;2024-01-27T09:04:04;0.20;;;0.20;;
61911;SDS011;49973;52.084;5.412;2024-01-27T09:06:33;0.20;;;0.20;;
61911;SDS011;49973;52.084;5.412;2024-01-27T09:09:02;0.20;;;0.20;;
61911;SDS011;49973;52.084;5.412;2024-01-27T09:11:31;0.20;;;0.20;;
61911;SDS011;49973;52.084;5.412;2024-01-27T09:14:02;0.20;;;0.20;;
61911;SDS011;49973;52.084;5.412;2024-01-27T09:16:33;0.13;;;0.13;;
61911;SDS011;49973;52.084;5.412;2024-01-27T09:19:02;0.20;;;0.20;;
61911;SDS011;49973;52.084;5.412;2024-01-27T09:21:31;0.20;;;0.20;;
61911;SDS011;49973;52.084;5.412;2024-01-27T09:24:00;0.20;;;0.20;;
61911;SDS011;49973;52.084;5.412;2024-01-27T09:26:29;0.20;;;0.20;;
61911;SDS011;49973;52.084;5.412;2024-01-27T09:28:58;0.10;;;0.10;;
61911;SDS011;49973;52.084;5.412;2024-01-27T09:31:28;0.20;;;0.20;;
61911;SDS011;49973;52.084;5.412;2024-01-27T09:33:56;0.20;;;0.20;;
61911;SDS011;49973;52.084;5.412;2024-01-27T09:36:25;0.10;;;0.10;;
61911;SDS011;49973;52.084;5.412;2024-01-27T09:38:54;0.20;;;0.20;;
61911;SDS011;49973;52.084;5.412;2024-01-27T09:41:23;0.17;;;0.17;;
61911;SDS011;49973;52.084;5.412;2024-01-27T09:43:51;0.20;;;0.20;;
61911;SDS011;49973;52.084;5.412;2024-01-27T09:46:22;0.20;;;0.20;;
61911;SDS011;49973;52.084;5.412;2024-01-27T09:48:52;0.20;;;0.20;;
61911;SDS011;49973;52.084;5.412;2024-01-27T09:51:21;0.13;;;0.13;;
61911;SDS011;49973;52.084;5.412;2024-01-27T09:53:50;0.20;;;0.20;;
61911;SDS011;49973;52.084;5.412;2024-01-27T09:56:19;0.20;;;0.20;;
61911;SDS011;49973;52.084;5.412;2024-01-27T09:58:49;0.20;;;0.20;;
61911;SDS011;49973;52.084;5.412;2024-01-27T10:01:22;0.20;;;0.20;;
61911;SDS011;49973;52.084;5.412;2024-01-27T10:03:56;0.20;;;0.20;;
61911;SDS011;49973;52.084;5.412;2024-01-27T10:06:26;0.20;;;0.20;;
61911;SDS011;49973;52.084;5.412;2024-01-27T10:08:55;0.20;;;0.20;;
61911;SDS011;49973;52.084;5.412;2024-01-27T10:11:24;0.10;;;0.10;;
61911;SDS011;49973;52.084;5.412;2024-01-27T10:13:54;0.20;;;0.20;;
61911;SDS011;49973;52.084;5.412;2024-01-27T10:16:26;0.10;;;0.10;;
61911;SDS011;49973;52.084;5.412;2024-01-27T10:19:00;0.10;;;0.10;;
61911;SDS011;49973;52.084;5.412;2024-01-27T10:21:30;0.20;;;0.20;;
61911;SDS011;49973;52.084;5.412;2024-01-27T10:23:59;0.10;;;0.10;;
61911;SDS011;49973;52.084;5.412;2024-01-27T10:26:30;0.20;;;0.20;;
61911;SDS011;49973;52.084;5.412;2024-01-27T10:29:00;0.20;;;0.20;;
61911;SDS011;49973;52.084;5.412;2024-01-27T10:31:30;0.10;;;0.10;;
61911;SDS011;49973;52.084;5.412;2024-01-27T10:34:00;0.10;;;0.10;;
61911;SDS011;49973;52.084;5.412;2024-01-27T10:36:40;0.10;;;0.10;;
61911;SDS011;49973;52.084;5.412;2024-01-27T10:39:16;0.10;;;0.10;;
61911;SDS011;49973;52.084;5.412;2024-01-27T10:41:46;0.10;;;0.10;;
61911;SDS011;49973;52.084;5.412;2024-01-27T10:44:15;0.13;;;0.13;;
61911;SDS011;49973;52.084;5.412;2024-01-27T10:46:46;0.13;;;0.13;;
61911;SDS011;49973;52.084;5.412;2024-01-27T10:49:17;0.20;;;0.20;;
61911;SDS011;49973;52.084;5.412;2024-01-27T10:51:49;0.10;;;0.10;;
61911;SDS011;49973;52.084;5.412;2024-01-27T10:54:23;0.10;;;0.10;;
61911;SDS011;49973;52.084;5.412;2024-01-27T10:56:54;0.10;;;0.10;;
61911;SDS011;49973;52.084;5.412;2024-01-27T10:59:25;0.10;;;0.10;;
61911;SDS011;49973;52.084;5.412;2024-01-27T11:01:55;0.10;;;0.10;;
61911;SDS011;49973;52.084;5.412;2024-01-27T11:04:26;0.10;;;0.10;;
61911;SDS011;49973;52.084;5.412;2024-01-27T11:06:59;0.20;;;0.20;;
61911;SDS011;49973;52.084;5.412;2024-01-27T11:09:29;0.10;;;0.10;;
61911;SDS011;49973;52.084;5.412;2024-01-27T11:12:00;0.20;;;0.20;;
61911;SDS011;49973;52.084;5.412;2024-01-27T11:14:30;0.10;;;0.10;;
61911;SDS011;49973;52.084;5.412;2024-01-27T11:16:59;0.10;;;0.10;;
61911;SDS011;49973;52.084;5.412;2024-01-27T11:19:29;0.20;;;0.20;;
61911;SDS011;49973;52.084;5.412;2024-01-27T11:22:01;0.10;;;0.10;;
61911;SDS011;49973;52.084;5.412;2024-01-27T11:24:30;0.10;;;0.10;;
61911;SDS011;49973;52.084;5.412;2024-01-27T11:27:00;0.10;;;0.10;;
61911;SDS011;49973;52.084;5.412;2024-01-27T11:29:29;0.10;;;0.10;;
61911;SDS011;49973;52.084;5.412;2024-01-27T11:32:00;0.10;;;0.10;;
61911;SDS011;49973;52.084;5.412;2024-01-27T11:34:41;0.20;;;0.20;;
61911;SDS011;49973;52.084;5.412;2024-01-27T11:37:11;0.10;;;0.10;;
61911;SDS011;49973;52.084;5.412;2024-01-27T11:39:41;0.20;;;0.20;;
61911;SDS011;49973;52.084;5.412;2024-01-27T11:42:10;0.10;;;0.10;;
61911;SDS011;49973;52.084;5.412;2024-01-27T11:44:41;0.10;;;0.10;;
61911;SDS011;49973;52.084;5.412;2024-01-27T11:47:14;0.20;;;0.20;;
61911;SDS011;49973;52.084;5.412;2024-01-27T11:49:50;0.13;;;0.13;;
61911;SDS011;49973;52.084;5.412;2024-01-27T11:52:20;0.10;;;0.10;;
61911;SDS011;49973;52.084;5.412;2024-01-27T11:54:53;0.20;;;0.20;;
61911;SDS011;49973;52.084;5.412;2024-01-27T11:57:23;0.10;;;0.10;;
61911;SDS011;49973;52.084;5.412;2024-01-27T11:59:52;0.20;;;0.20;;
61911;SDS011;49973;52.084;5.412;2024-01-27T12:02:22;0.10;;;0.10;;
61911;SDS011;49973;52.084;5.412;2024-01-27T12:04:52;0.10;;;0.10;;
61911;SDS011;49973;52.084;5.412;2024-01-27T12:07:22;0.10;;;0.10;;
61911;SDS011;49973;52.084;5.412;2024-01-27T12:09:51;0.10;;;0.10;;
61911;SDS011;49973;52.084;5.412;2024-01-27T12:12:20;0.10;;;0.10;;
61911;SDS011;49973;52.084;5.412;2024-01-27T12:14:49;0.10;;;0.10;;
61911;SDS011;49973;52.084;5.412;2024-01-27T12:17:19;0.10;;;0.10;;
61911;SDS011;49973;52.084;5.412;2024-01-27T12:19:52;0.10;;;0.10;;
61911;SDS011;49973;52.084;5.412;2024-01-27T12:22:22;0.13;;;0.13;;
61911;SDS011;49973;52.084;5.412;2024-01-27T12:24:53;0.10;;;0.10;;
61911;SDS011;49973;52.084;5.412;2024-01-27T12:27:22;0.10;;;0.10;;
61911;SDS011;49973;52.084;5.412;2024-01-27T12:29:51;0.10;;;0.10;;
61911;SDS011;49973;52.084;5.412;2024-01-27T12:32:20;0.13;;;0.13;;
61911;SDS011;49973;52.084;5.412;2024-01-27T12:34:49;0.10;;;0.10;;
61911;SDS011;49973;52.084;5.412;2024-01-27T12:37:20;0.13;;;0.13;;
61911;SDS011;49973;52.084;5.412;2024-01-27T12:39:50;0.10;;;0.10;;
61911;SDS011;49973;52.084;5.412;2024-01-27T12:42:19;2.10;;;1.90;;
61911;SDS011;49973;52.084;5.412;2024-01-27T12:44:47;4.90;;;1.70;;
61911;SDS011;49973;52.084;5.412;2024-01-27T12:47:16;5.97;;;1.87;;
61911;SDS011;49973;52.084;5.412;2024-01-27T12:49:46;12.27;;;2.87;;
61911;SDS011;49973;52.084;5.412;2024-01-27T12:52:16;4.00;;;3.40;;
61911;SDS011;49973;52.084;5.412;2024-01-27T12:54:46;8.87;;;2.70;;
61911;SDS011;49973;52.084;5.412;2024-01-27T12:57:14;7.77;;;2.03;;
61911;SDS011;49973;52.084;5.412;2024-01-27T12:59:44;1.63;;;1.53;;
61911;SDS011;49973;52.084;5.412;2024-01-27T13:02:13;3.17;;;1.97;;
61911;SDS011;49973;52.084;5.412;2024-01-27T13:04:43;3.00;;;2.13;;
61911;SDS011;49973;52.084;5.412;2024-01-27T13:07:11;14.00;;;2.27;;
61911;SDS011;49973;52.084;5.412;2024-01-27T13:09:41;4.90;;;2.70;;
61911;SDS011;49973;52.084;5.412;2024-01-27T13:12:11;10.23;;;1.93;;
61911;SDS011;49973;52.084;5.412;2024-01-27T13:14:40;3.70;;;1.70;;
61911;SDS011;49973;52.084;5.412;2024-01-27T13:17:09;3.70;;;1.83;;
61911;SDS011;49973;52.084;5.412;2024-01-27T13:19:38;10.93;;;2.83;;
61911;SDS011;49973;52.084;5.412;2024-01-27T13:22:07;3.47;;;1.47;;
61911;SDS011;49973;52.084;5.412;2024-01-27T13:24:36;5.83;;;2.83;;
61911;SDS011;49973;52.084;5.412;2024-01-27T13:27:05;6.13;;;3.17;;
61911;SDS011;49973;52.084;5.412;2024-01-27T13:29:36;6.67;;;2.20;;
61911;SDS011;49973;52.084;5.412;2024-01-27T13:32:05;2.13;;;1.93;;
61911;SDS011;49973;52.084;5.412;2024-01-27T13:34:34;2.60;;;1.80;;
61911;SDS011;49973;52.084;5.412;2024-01-27T13:37:03;6.73;;;1.67;;
61911;SDS011;49973;52.084;5.412;2024-01-27T13:39:32;6.03;;;2.13;;
61911;SDS011;49973;52.084;5.412;2024-01-27T13:42:03;3.57;;;1.90;;
61911;SDS011;49973;52.084;5.412;2024-01-27T13:44:33;3.33;;;2.33;;
61911;SDS011;49973;52.084;5.412;2024-01-27T13:47:04;3.07;;;2.00;;
61911;SDS011;49973;52.084;5.412;2024-01-27T13:49:36;3.90;;;2.33;;
61911;SDS011;49973;52.084;5.412;2024-01-27T13:52:06;6.40;;;1.90;;
61911;SDS011;49973;52.084;5.412;2024-01-27T13:54:35;4.53;;;1.77;;
61911;SDS011;49973;52.084;5.412;2024-01-27T13:57:04;3.47;;;2.40;;
61911;SDS011;49973;52.084;5.412;2024-01-27T13:59:33;7.20;;;2.40;;
61911;SDS011;49973;52.084;5.412;2024-01-27T14:02:02;3.23;;;1.87;;
61911;SDS011;49973;52.084;5.412;2024-01-27T14:04:32;7.90;;;2.30;;
61911;SDS011;49973;52.084;5.412;2024-01-27T14:07:01;5.03;;;2.00;;
61911;SDS011;49973;52.084;5.412;2024-01-27T14:09:33;1.53;;;1.20;;
61911;SDS011;49973;52.084;5.412;2024-01-27T14:12:02;4.67;;;2.00;;
61911;SDS011;49973;52.084;5.412;2024-01-27T14:14:32;4.27;;;2.17;;
61911;SDS011;49973;52.084;5.412;2024-01-27T14:17:03;12.17;;;2.37;;
61911;SDS011;49973;52.084;5.412;2024-01-27T14:19:33;10.50;;;2.17;;
61911;SDS011;49973;52.084;5.412;2024-01-27T14:22:02;8.40;;;2.50;;
61911;SDS011;49973;52.084;5.412;2024-01-27T14:24:31;5.77;;;2.90;;
61911;SDS011;49973;52.084;5.412;2024-01-27T14:27:01;4.40;;;2.43;;
61911;SDS011;49973;52.084;5.412;2024-01-27T14:29:32;7.03;;;2.27;;
61911;SDS011;49973;52.084;5.412;2024-01-27T14:32:03;16.70;;;3.00;;
61911;SDS011;49973;52.084;5.412;2024-01-27T14:34:36;6.53;;;2.47;;
61911;SDS011;49973;52.084;5.412;2024-01-27T14:37:05;5.43;;;2.70;;
61911;SDS011;49973;52.084;5.412;2024-01-27T14:39:36;11.43;;;2.10;;
61911;SDS011;49973;52.084;5.412;2024-01-27T14:42:08;2.30;;;1.87;;
61911;SDS011;49973;52.084;5.412;2024-01-27T14:44:37;4.10;;;2.60;;
61911;SDS011;49973;52.084;5.412;2024-01-27T14:47:06;21.53;;;3.60;;
61911;SDS011;49973;52.084;5.412;2024-01-27T14:49:38;3.23;;;1.80;;
61911;SDS011;49973;52.084;5.412;2024-01-27T14:52:07;11.77;;;3.03;;
61911;SDS011;49973;52.084;5.412;2024-01-27T14:54:38;3.00;;;2.10;;
61911;SDS011;49973;52.084;5.412;2024-01-27T14:57:07;3.23;;;1.43;;
61911;SDS011;49973;52.084;5.412;2024-01-27T14:59:37;3.00;;;2.23;;
61911;SDS011;49973;52.084;5.412;2024-01-27T15:02:06;11.10;;;2.60;;